»·PEaware :: N619PA KSAN-L72

N619PA :: KSAN-L72

FLIGHT INFORMATION

Flight Status: Arrived
Operator: Privately registered:
United States
More flights under this callsign
Pilot: Anonymous 15452 (15452)
Aircraft: SOCATA TBM-900
(TBM9)
More flights by this aircraft type
Origin: KSAN San Diego Intl-Lindbergh
United States
Destination: L72 Trona
United States
More flights between these airports :: More routes between these airports
Route: +CWARD2 SLI V459 LHS
File this flight plan on PilotEdge
Remarks:
Altitude:
(Current/Filed)
30,000ft
Speed:
(Current/Filed)
310kts
Departed: 31-Dec-17 03:52 PM
Arrived: 31-Dec-17 04:40 PM
Distance/Time
Traveled:
184nm/0:48
Distance/Time
To Go:
Arrived

Flight Plot

Page will automatically refresh every two minutes.

Flight plan parsing failed; only flown route is shown


Map Options




Map Legend


Flown Route
Filed Route
Departure Airport
Arrival Airport
Navaid (VOR, NDB)
Fix

Horizontal Profiles

Position Reports

Time Latitude Longitude Heading Altitude Ground
Speed
31-Dec-17 15:28 32.732018 -117.176219 193 23ft 0kts
31-Dec-17 15:29 32.732018 -117.176219 193 23ft 0kts
31-Dec-17 15:30 32.732018 -117.176219 193 23ft 0kts
31-Dec-17 15:31 32.732018 -117.176219 193 23ft 0kts
31-Dec-17 15:32 32.732018 -117.176219 193 23ft 0kts
31-Dec-17 15:33 32.732018 -117.176219 193 23ft 0kts
31-Dec-17 15:34 32.732018 -117.176219 193 23ft 0kts
31-Dec-17 15:35 32.732018 -117.176219 193 23ft 0kts
31-Dec-17 15:36 32.732018 -117.176219 193 23ft 0kts
31-Dec-17 15:37 32.732018 -117.176219 193 23ft 0kts
31-Dec-17 15:38 32.732018 -117.176219 193 23ft 0kts
31-Dec-17 15:39 32.732018 -117.176219 193 23ft 0kts
31-Dec-17 15:40 32.732018 -117.176219 193 23ft 0kts
31-Dec-17 15:41 32.732018 -117.176219 193 23ft 0kts
31-Dec-17 15:42 32.732018 -117.176219 193 23ft 0kts
31-Dec-17 15:43 32.732018 -117.176219 193 23ft 0kts
31-Dec-17 15:44 32.732018 -117.176219 193 23ft 0kts
31-Dec-17 15:45 32.732018 -117.176219 193 23ft 0kts
31-Dec-17 15:46 32.732018 -117.176219 193 23ft 0kts
31-Dec-17 15:47 32.732018 -117.176219 193 23ft 0kts
31-Dec-17 15:48 32.732018 -117.176219 193 23ft 0kts
31-Dec-17 15:49 32.732018 -117.176219 193 23ft 0kts
31-Dec-17 15:50 32.732018 -117.176219 193 23ft 0kts
31-Dec-17 15:51 32.732018 -117.176219 193 23ft 0kts
31-Dec-17 15:52 32.732018 -117.176219 193 23ft 0kts
31-Dec-17 15:53 32.732018 -117.176219 193 23ft 0kts
31-Dec-17 15:54 32.731973 -117.176232 194 23ft 0kts
31-Dec-17 15:55 32.731495 -117.175963 135 23ft 14kts
31-Dec-17 15:56 32.730990 -117.175456 149 23ft 0kts
31-Dec-17 15:57 32.730169 -117.175568 266 19ft 18kts
31-Dec-17 15:58 32.744372 -117.214745 303 1494ft 149kts
31-Dec-17 15:59 32.766708 -117.256161 301 3935ft 153kts
31-Dec-17 16:00 32.785455 -117.291696 302 5965ft 157kts
31-Dec-17 16:01 32.810614 -117.334762 307 8266ft 164kts
31-Dec-17 16:02 32.838533 -117.378129 308 10487ft 171kts
31-Dec-17 16:03 32.869108 -117.425604 308 12055ft 215kts
31-Dec-17 16:04 32.910237 -117.489393 308 12010ft 261kts
31-Dec-17 16:05 32.955394 -117.559560 308 12010ft 269kts
31-Dec-17 16:06 32.991641 -117.616328 309 15223ft 173kts
31-Dec-17 16:07 33.020257 -117.661054 309 17375ft 175kts
31-Dec-17 16:08 33.064478 -117.671340 358 19575ft 183kts
31-Dec-17 16:09 33.104566 -117.666074 356 21233ft 188kts
31-Dec-17 16:10 33.145651 -117.660788 354 22839ft 196kts
31-Dec-17 16:11 33.195710 -117.654424 352 24698ft 202kts
31-Dec-17 16:12 33.249418 -117.647670 351 26379ft 209kts
31-Dec-17 16:13 33.306456 -117.640546 350 27882ft 217kts
31-Dec-17 16:14 33.367257 -117.633002 349 29462ft 227kts
31-Dec-17 16:15 33.432647 -117.625186 350 30156ft 266kts
31-Dec-17 16:16 33.508950 -117.615956 352 30145ft 298kts
31-Dec-17 16:17 33.584995 -117.606530 353 30137ft 309kts
31-Dec-17 16:18 33.667578 -117.596266 353 30132ft 314kts
31-Dec-17 16:19 33.748408 -117.586209 353 30128ft 316kts
31-Dec-17 16:20 33.833115 -117.575698 353 30128ft 316kts
31-Dec-17 16:21 33.917277 -117.565229 353 30127ft 316kts
31-Dec-17 16:22 33.995505 -117.555515 353 30126ft 317kts
31-Dec-17 16:23 34.074480 -117.545708 353 30129ft 317kts
31-Dec-17 16:24 34.153780 -117.535870 353 30133ft 317kts
31-Dec-17 16:25 34.234467 -117.525849 353 30133ft 317kts
31-Dec-17 16:26 34.321826 -117.514982 353 30080ft 318kts
31-Dec-17 16:27 34.408748 -117.504147 353 30012ft 319kts
31-Dec-17 16:28 34.496337 -117.493211 353 30007ft 318kts
31-Dec-17 16:29 34.583812 -117.482279 353 30007ft 317kts
31-Dec-17 16:30 34.670454 -117.471417 353 30009ft 317kts
31-Dec-17 16:31 34.754843 -117.460821 353 30012ft 317kts
31-Dec-17 16:32 34.841982 -117.449872 353 30036ft 316kts
31-Dec-17 16:33 34.929533 -117.439145 355 28845ft 345kts
31-Dec-17 16:34 35.025801 -117.427247 358 26972ft 359kts
31-Dec-17 16:35 35.119481 -117.415304 359 25111ft 355kts
31-Dec-17 16:36 35.214539 -117.403156 0 22682ft 353kts
31-Dec-17 16:37 35.307510 -117.391263 1 19733ft 321kts
31-Dec-17 16:38 35.393180 -117.380430 2 16656ft 305kts
31-Dec-17 16:39 35.472406 -117.370389 3 13563ft 270kts
31-Dec-17 16:40 35.541051 -117.361697 4 10568ft 250kts
31-Dec-17 16:41 35.605372 -117.353502 4 7602ft 240kts
31-Dec-17 16:42 35.666960 -117.345612 6 4670ft 234kts
31-Dec-17 16:43 35.729106 -117.337613 6 2570ft 194kts
31-Dec-17 16:44 35.770734 -117.335253 7 2296ft 129kts
31-Dec-17 16:45 35.801121 -117.329210 9 1719ft 85kts
31-Dec-17 16:46 35.812189 -117.328054 307 1681ft 8kts
31-Dec-17 16:47 35.812303 -117.328084 1 1682ft 0kts
31-Dec-17 16:48 35.812860 -117.327749 89 1684ft 3kts
31-Dec-17 16:49 35.814122 -117.326717 7 1692ft 12kts
31-Dec-17 16:50 35.819061 -117.325735 11 1718ft 7kts
31-Dec-17 16:51 35.820069 -117.325516 187 1723ft 12kts
31-Dec-17 16:52 35.791704 -117.332482 190 2515ft 153kts

Navigation Log

Ident Type
Flight plan parsing failed, navigation log unavailable